Punta de Agua, Argentina
Current Conditions -  °F | °C
As of 4:00 AM on Monday 24 Nov 2014 (Local Time) from SCSE Reporting Station
Clear Clear  
Wind Chill: 52°   Ceiling: Unl
Heat Index: 52°   Visibility: 6mi
Dew Point: 46°   Wind: 3mph
Humidity: 82%   Direction: 110°ESE
Pressure: 29.94"   Gusts: NA
Location:  28.6°S, 68.65°W
Report Text: SCSE 240700Z 11003KT CAVOK 11/08 Q1014
Loading
Personal Weather Stations






























Interactive Weather Map New forecast layout! Learn more

10-Day Weather Forecast

Advertisements
Track Severe Weather on mobile